createdAt,value
2023-05-01T00:01:44.967Z,11.40
2023-05-01T00:04:13.122Z,11.30
2023-05-01T00:06:42.560Z,11.27
2023-05-01T00:09:10.640Z,11.25
2023-05-01T00:11:38.606Z,11.20
2023-05-01T00:14:06.659Z,11.26
2023-05-01T00:16:36.280Z,11.24
2023-05-01T00:19:05.066Z,11.24
2023-05-01T00:21:32.923Z,11.22
2023-05-01T00:24:02.168Z,11.20
2023-05-01T00:26:31.490Z,11.15
2023-05-01T00:28:59.627Z,11.15
2023-05-01T00:31:27.639Z,11.16
2023-05-01T00:33:55.792Z,11.09
2023-05-01T00:36:23.626Z,11.09
2023-05-01T00:38:51.447Z,11.04
2023-05-01T00:41:21.358Z,10.97
2023-05-01T00:43:49.272Z,10.90
2023-05-01T00:46:18.199Z,10.74
2023-05-01T00:48:46.206Z,10.87
2023-05-01T00:51:15.257Z,10.89
2023-05-01T00:53:44.308Z,10.86
2023-05-01T00:56:12.772Z,10.87
2023-05-01T00:58:42.135Z,10.85
2023-05-01T01:01:10.230Z,10.83
2023-05-01T01:03:38.222Z,10.76
2023-05-01T01:06:10.583Z,10.67
2023-05-01T01:08:43.461Z,10.67
2023-05-01T01:11:19.869Z,10.68
2023-05-01T01:13:59.279Z,10.64
2023-05-01T01:16:35.172Z,10.63
2023-05-01T01:19:17.221Z,10.60
2023-05-01T01:21:50.944Z,10.65
2023-05-01T01:24:37.339Z,10.67
2023-05-01T01:27:59.891Z,10.76
2023-05-01T01:31:08.357Z,10.67
2023-05-01T01:34:01.891Z,10.61
2023-05-01T01:36:38.918Z,10.61
2023-05-01T01:39:14.263Z,10.55
2023-05-01T01:41:48.178Z,10.49
2023-05-01T01:44:21.964Z,10.43
2023-05-01T01:46:52.294Z,10.34
2023-05-01T01:49:24.477Z,10.27
2023-05-01T01:51:55.806Z,10.21
2023-05-01T01:54:30.402Z,10.12
2023-05-01T01:57:02.075Z,10.08
2023-05-01T01:59:33.156Z,10.09
2023-05-01T02:02:03.361Z,10.12
2023-05-01T02:04:34.160Z,9.96
2023-05-01T02:07:02.962Z,10.05
2023-05-01T02:09:31.520Z,10.06
2023-05-01T02:12:01.356Z,10.08
2023-05-01T02:14:30.301Z,10.18
2023-05-01T02:16:58.839Z,10.28
2023-05-01T02:19:27.606Z,10.28
2023-05-01T02:21:59.791Z,10.22
2023-05-01T02:24:29.574Z,10.13
2023-05-01T02:27:01.379Z,10.02
2023-05-01T02:29:29.342Z,9.79
2023-05-01T02:31:57.415Z,9.78
2023-05-01T02:34:25.604Z,9.64
2023-05-01T02:36:53.491Z,9.65
2023-05-01T02:39:23.123Z,9.54
2023-05-01T02:41:52.672Z,9.53
2023-05-01T02:44:22.417Z,9.47
2023-05-01T02:46:53.512Z,9.31
2023-05-01T02:49:22.739Z,9.25
2023-05-01T02:51:51.826Z,9.26
2023-05-01T02:54:20.953Z,9.25
2023-05-01T02:56:50.231Z,9.23
2023-05-01T02:59:18.183Z,9.22
2023-05-01T03:01:46.279Z,9.23
2023-05-01T03:04:14.259Z,9.29
2023-05-01T03:06:42.240Z,9.26
2023-05-01T03:09:10.237Z,9.22
2023-05-01T03:11:38.133Z,9.15
2023-05-01T03:14:07.654Z,9.06
2023-05-01T03:16:35.613Z,8.96
2023-05-01T03:19:03.614Z,8.91
2023-05-01T03:21:33.908Z,8.78
2023-05-01T03:24:01.962Z,8.73
2023-05-01T03:26:30.178Z,8.69
2023-05-01T03:28:58.453Z,8.63
2023-05-01T03:31:27.850Z,8.51
2023-05-01T03:33:55.971Z,8.49
2023-05-01T03:36:23.917Z,8.43
2023-05-01T03:38:51.864Z,8.29
2023-05-01T03:41:19.906Z,8.31
2023-05-01T03:43:47.896Z,8.37
2023-05-01T03:46:15.966Z,8.28
2023-05-01T03:48:45.235Z,8.30
2023-05-01T03:51:13.060Z,8.30
2023-05-01T03:53:41.061Z,8.30
2023-05-01T03:56:09.370Z,8.30
2023-05-01T03:58:37.382Z,8.20
2023-05-01T04:01:05.888Z,8.27
2023-05-01T04:03:33.861Z,7.98
2023-05-01T04:06:03.674Z,8.22
2023-05-01T04:08:31.702Z,8.03
2023-05-01T04:10:59.674Z,8.15
2023-05-01T04:13:27.608Z,8.00
2023-05-01T04:15:57.907Z,8.05
2023-05-01T04:18:25.812Z,8.28
2023-05-01T04:20:53.786Z,8.47
2023-05-01T04:23:24.733Z,8.58
2023-05-01T04:25:52.684Z,8.69
2023-05-01T04:28:20.608Z,8.81
2023-05-01T04:30:48.534Z,8.92
2023-05-01T04:33:16.456Z,8.96
2023-05-01T04:35:44.369Z,9.10
2023-05-01T04:38:12.509Z,9.11
2023-05-01T04:40:41.802Z,9.15
2023-05-01T04:43:09.895Z,9.29
2023-05-01T04:45:39.434Z,9.35
2023-05-01T04:48:07.979Z,9.41
2023-05-01T04:50:35.917Z,9.49
2023-05-01T04:53:03.797Z,9.44
2023-05-01T04:55:31.712Z,9.54
2023-05-01T04:58:02.700Z,9.62
2023-05-01T05:00:30.875Z,9.70
2023-05-01T05:02:58.814Z,9.75
2023-05-01T05:05:26.890Z,9.93
2023-05-01T05:07:54.745Z,10.03
2023-05-01T05:10:22.658Z,10.14
2023-05-01T05:12:50.570Z,10.23
2023-05-01T05:15:19.947Z,10.29
2023-05-01T05:17:47.958Z,10.28
2023-05-01T05:20:15.948Z,10.42
2023-05-01T05:22:44.023Z,10.44
2023-05-01T05:25:12.660Z,10.53
2023-05-01T05:27:40.560Z,10.59
2023-05-01T05:30:10.260Z,10.60
2023-05-01T05:32:39.513Z,10.63
2023-05-01T05:35:07.998Z,10.74
2023-05-01T05:37:35.887Z,10.86
2023-05-01T05:40:04.152Z,10.92
2023-05-01T05:42:32.251Z,10.89
2023-05-01T05:45:00.131Z,10.97
2023-05-01T05:47:28.012Z,11.02
2023-05-01T05:49:57.519Z,11.02
2023-05-01T05:52:25.720Z,11.06
2023-05-01T05:54:53.625Z,10.98
2023-05-01T05:57:21.535Z,11.27
2023-05-01T05:59:49.468Z,11.44
2023-05-01T06:02:17.362Z,11.50
2023-05-01T06:04:45.238Z,11.61
2023-05-01T06:07:14.554Z,11.70
2023-05-01T06:09:42.519Z,11.76
2023-05-01T06:12:10.483Z,11.92
2023-05-01T06:14:38.330Z,12.04
2023-05-01T06:17:07.051Z,12.07
2023-05-01T06:19:35.007Z,12.17
2023-05-01T06:22:02.956Z,12.30
2023-05-01T06:24:32.529Z,12.45
2023-05-01T06:27:01.594Z,12.51
2023-05-01T06:29:29.662Z,12.26
2023-05-01T06:31:57.663Z,12.45
2023-05-01T06:34:25.654Z,12.46
2023-05-01T06:36:53.582Z,12.66
2023-05-01T06:39:21.445Z,12.76
2023-05-01T06:41:50.832Z,12.86
2023-05-01T06:44:18.804Z,12.93
2023-05-01T06:46:46.706Z,13.03
2023-05-01T06:49:14.676Z,12.99
2023-05-01T06:51:42.655Z,13.18
2023-05-01T06:54:10.504Z,13.23
2023-05-01T06:56:39.768Z,13.22
2023-05-01T06:59:09.073Z,13.28
2023-05-01T07:01:37.140Z,13.39
2023-05-01T07:04:05.251Z,13.53
2023-05-01T07:06:33.477Z,13.72
2023-05-01T07:09:01.466Z,13.82
2023-05-01T07:11:29.337Z,14.09
2023-05-01T07:13:57.311Z,14.18
2023-05-01T07:16:26.663Z,14.31
2023-05-01T07:18:54.614Z,14.42
2023-05-01T07:21:22.909Z,14.54
2023-05-01T07:23:50.886Z,14.66
2023-05-01T07:26:19.733Z,14.52
2023-05-01T07:28:47.642Z,14.59
2023-05-01T07:31:16.239Z,14.66
2023-05-01T07:33:45.696Z,14.67
2023-05-01T07:36:14.137Z,14.76
2023-05-01T07:38:42.108Z,14.83
2023-05-01T07:41:09.974Z,14.93
2023-05-01T07:43:37.983Z,15.03
2023-05-01T07:46:06.331Z,15.00
2023-05-01T07:48:35.088Z,15.14
2023-05-01T07:51:05.849Z,15.16
2023-05-01T07:53:33.907Z,15.28
2023-05-01T07:56:09.013Z,15.47
2023-05-01T07:58:37.324Z,15.51
2023-05-01T08:01:05.665Z,15.67
2023-05-01T08:03:33.913Z,15.84
2023-05-01T08:06:02.002Z,15.93
2023-05-01T08:08:31.365Z,16.04
2023-05-01T08:10:59.285Z,16.20
2023-05-01T08:13:27.335Z,16.18
2023-05-01T08:15:55.374Z,16.17
2023-05-01T08:18:23.405Z,16.11
2023-05-01T08:20:51.301Z,16.17
2023-05-01T08:23:19.241Z,16.24
2023-05-01T08:25:51.124Z,16.35
2023-05-01T08:28:20.784Z,16.54
2023-05-01T08:30:49.657Z,16.76
2023-05-01T08:33:17.831Z,16.79
2023-05-01T08:35:45.662Z,16.99
2023-05-01T08:38:13.707Z,17.05
2023-05-01T08:40:45.321Z,17.23
2023-05-01T08:43:15.075Z,17.22
2023-05-01T08:45:44.507Z,17.28
2023-05-01T08:48:14.169Z,17.39
2023-05-01T08:50:46.053Z,17.32
2023-05-01T08:53:16.309Z,17.55
2023-05-01T08:55:46.695Z,17.77
2023-05-01T08:58:18.622Z,17.81
2023-05-01T09:00:47.685Z,17.92
2023-05-01T09:03:16.688Z,18.15
2023-05-01T09:05:45.520Z,18.33
2023-05-01T09:08:13.519Z,18.38
2023-05-01T09:10:46.404Z,18.42
2023-05-01T09:13:15.853Z,18.67
2023-05-01T09:15:44.372Z,18.76
2023-05-01T09:18:12.990Z,18.76
2023-05-01T09:20:41.692Z,18.84
2023-05-01T09:23:10.127Z,18.80
2023-05-01T09:25:38.102Z,18.74
2023-05-01T09:28:07.079Z,18.71
2023-05-01T09:30:37.966Z,18.59
2023-05-01T09:33:07.883Z,18.67
2023-05-01T09:35:50.383Z,18.78
2023-05-01T09:38:20.130Z,18.55
2023-05-01T09:40:48.253Z,18.62
2023-05-01T09:43:24.903Z,18.76
2023-05-01T09:46:06.862Z,18.83
2023-05-01T09:48:36.222Z,19.02
2023-05-01T09:51:21.740Z,19.10
2023-05-01T09:53:50.208Z,19.22
2023-05-01T09:56:18.549Z,19.18
2023-05-01T09:58:46.752Z,19.33
2023-05-01T10:01:16.366Z,19.33
2023-05-01T10:03:45.926Z,19.53
2023-05-01T10:06:13.970Z,19.67
2023-05-01T10:08:50.710Z,19.79
2023-05-01T10:11:18.833Z,19.94
2023-05-01T10:13:46.870Z,19.95
2023-05-01T10:16:32.117Z,20.01
2023-05-01T10:19:02.349Z,20.05
2023-05-01T10:21:33.138Z,19.69
2023-05-01T10:24:03.556Z,19.95
2023-05-01T10:26:31.469Z,20.23
2023-05-01T10:29:01.672Z,20.42
2023-05-01T10:31:33.075Z,20.68
2023-05-01T10:34:02.472Z,21.09
2023-05-01T10:36:35.336Z,21.35
2023-05-01T10:39:04.019Z,21.80
2023-05-01T10:42:04.821Z,22.17
2023-05-01T10:44:34.945Z,22.83
2023-05-01T10:47:37.867Z,23.08
2023-05-01T10:50:08.867Z,23.31
2023-05-01T10:53:14.641Z,23.13
2023-05-01T10:55:44.848Z,22.52
2023-05-01T10:58:13.951Z,22.46
2023-05-01T11:00:42.338Z,21.68
2023-05-01T11:03:40.323Z,21.42
2023-05-01T11:06:10.140Z,20.98
2023-05-01T11:08:40.322Z,20.69
2023-05-01T11:11:41.188Z,20.49
2023-05-01T11:14:12.262Z,20.25
2023-05-01T11:16:44.380Z,20.14
2023-05-01T11:19:33.747Z,20.20
2023-05-01T11:22:03.256Z,20.14
2023-05-01T11:24:34.207Z,20.52
2023-05-01T11:27:02.879Z,21.26
2023-05-01T11:29:33.747Z,22.32
2023-05-01T11:32:02.361Z,23.09
2023-05-01T11:34:37.637Z,23.72
2023-05-01T11:37:06.940Z,23.80
2023-05-01T11:39:34.800Z,23.71
2023-05-01T11:42:10.541Z,24.25
2023-05-01T11:44:38.617Z,24.25
2023-05-01T11:47:07.540Z,24.69
2023-05-01T11:49:36.240Z,24.81
2023-05-01T11:52:04.291Z,24.51
2023-05-01T11:54:48.145Z,23.74
2023-05-01T11:57:16.084Z,23.64
2023-05-01T11:59:48.082Z,23.41
2023-05-01T12:02:21.065Z,23.16
2023-05-01T12:04:49.231Z,23.03
2023-05-01T12:07:23.650Z,23.16
2023-05-01T12:09:53.421Z,23.65
2023-05-01T12:12:23.011Z,23.77
2023-05-01T12:14:50.951Z,23.89
2023-05-01T12:17:19.383Z,24.01
2023-05-01T12:19:49.659Z,23.64
2023-05-01T12:22:17.852Z,23.44
2023-05-01T12:24:54.144Z,23.14
2023-05-01T12:27:22.390Z,22.50
2023-05-01T12:29:50.611Z,21.78
2023-05-01T12:32:18.949Z,21.49
2023-05-01T12:34:46.954Z,21.27
2023-05-01T12:37:14.819Z,21.29
2023-05-01T12:39:45.619Z,20.85
2023-05-01T12:42:16.969Z,20.86
2023-05-01T12:44:45.438Z,20.72
2023-05-01T12:47:14.398Z,21.54
2023-05-01T12:49:43.114Z,22.55
2023-05-01T12:52:11.201Z,23.34
2023-05-01T12:54:42.313Z,24.12
2023-05-01T12:57:14.384Z,24.61
2023-05-01T12:59:45.085Z,24.97
2023-05-01T13:02:17.316Z,25.23
2023-05-01T13:04:46.592Z,25.42
2023-05-01T13:07:16.265Z,25.48
2023-05-01T13:09:53.734Z,25.72
2023-05-01T13:12:25.577Z,25.68
2023-05-01T13:15:02.025Z,25.79
2023-05-01T13:17:32.151Z,26.06
2023-05-01T13:20:05.144Z,26.13
2023-05-01T13:22:33.847Z,25.78
2023-05-01T13:25:05.860Z,25.68
2023-05-01T13:27:36.734Z,25.70
2023-05-01T13:30:07.803Z,25.89
2023-05-01T13:32:40.541Z,25.69
2023-05-01T13:35:10.167Z,25.95
2023-05-01T13:37:42.540Z,25.93
2023-05-01T13:40:12.249Z,25.20
2023-05-01T13:42:42.816Z,25.69
2023-05-01T13:45:14.291Z,25.88
2023-05-01T13:47:43.355Z,26.27
2023-05-01T13:50:15.122Z,26.30
2023-05-01T13:52:46.262Z,26.31
2023-05-01T13:55:14.911Z,25.69
2023-05-01T13:57:43.383Z,25.50
2023-05-01T14:00:19.248Z,24.89
2023-05-01T14:02:49.773Z,24.49
2023-05-01T14:05:20.213Z,24.69
2023-05-01T14:07:57.337Z,24.43
2023-05-01T14:10:29.695Z,24.47
2023-05-01T14:13:00.737Z,24.83
2023-05-01T14:15:31.857Z,25.35
2023-05-01T14:18:01.235Z,25.25
2023-05-01T14:20:32.455Z,25.27
2023-05-01T14:23:01.206Z,25.58
2023-05-01T14:25:35.008Z,25.28
2023-05-01T14:28:08.020Z,25.52
2023-05-01T14:30:41.700Z,25.70
2023-05-01T14:33:12.248Z,25.74
2023-05-01T14:35:48.895Z,25.28
2023-05-01T14:38:18.983Z,25.52
2023-05-01T14:40:47.442Z,25.28
2023-05-01T14:43:17.114Z,25.35
2023-05-01T14:45:50.000Z,24.91
2023-05-01T14:48:24.412Z,24.96
2023-05-01T14:50:52.837Z,25.45
2023-05-01T14:53:20.830Z,25.75
2023-05-01T14:55:51.789Z,25.75
2023-05-01T14:58:19.800Z,25.91
2023-05-01T15:00:49.091Z,25.97
2023-05-01T15:03:17.172Z,25.98
2023-05-01T15:05:46.221Z,26.19
2023-05-01T15:08:14.229Z,25.94
2023-05-01T15:10:42.371Z,25.83
2023-05-01T15:13:10.507Z,25.70
2023-05-01T15:15:38.583Z,25.68
2023-05-01T15:18:07.917Z,25.59
2023-05-01T15:20:37.677Z,25.67
2023-05-01T15:23:05.642Z,25.88
2023-05-01T15:25:33.602Z,25.85
2023-05-01T15:28:01.499Z,25.58
2023-05-01T15:30:29.432Z,25.62
2023-05-01T15:32:57.457Z,25.09
2023-05-01T15:35:27.064Z,24.97
2023-05-01T15:37:56.528Z,24.69
2023-05-01T15:40:24.442Z,24.57
2023-05-01T15:42:52.359Z,24.39
2023-05-01T15:45:21.864Z,24.53
2023-05-01T15:47:49.970Z,24.65
2023-05-01T15:50:18.150Z,24.52
2023-05-01T15:52:47.432Z,24.38
2023-05-01T15:55:15.352Z,24.29
2023-05-01T15:57:46.286Z,24.02
2023-05-01T16:00:16.787Z,23.94
2023-05-01T16:02:45.219Z,23.89
2023-05-01T16:05:15.031Z,24.07
2023-05-01T16:07:42.986Z,23.63
2023-05-01T16:10:12.602Z,23.39
2023-05-01T16:12:40.580Z,23.38
2023-05-01T16:15:09.488Z,23.28
2023-05-01T16:17:45.225Z,23.02
2023-05-01T16:20:14.859Z,23.11
2023-05-01T16:22:44.203Z,22.88
2023-05-01T16:25:13.836Z,22.88
2023-05-01T16:27:44.460Z,22.57
2023-05-01T16:30:15.431Z,22.26
2023-05-01T16:32:44.746Z,22.11
2023-05-01T16:35:17.471Z,22.27
2023-05-01T16:37:45.766Z,21.97
2023-05-01T16:40:20.634Z,22.00
2023-05-01T16:42:52.084Z,21.86
2023-05-01T16:45:20.836Z,21.13
2023-05-01T16:47:48.962Z,20.79
2023-05-01T16:50:17.300Z,20.33
2023-05-01T16:52:45.509Z,20.10
2023-05-01T16:55:14.222Z,19.77
2023-05-01T16:57:44.518Z,19.65
2023-05-01T17:00:14.244Z,19.59
2023-05-01T17:02:42.140Z,19.44
2023-05-01T17:05:10.765Z,19.30
2023-05-01T17:07:38.628Z,19.21
2023-05-01T17:10:07.937Z,18.98
2023-05-01T17:12:35.982Z,18.79
2023-05-01T17:15:06.333Z,18.84
2023-05-01T17:17:34.528Z,18.69
2023-05-01T17:20:02.619Z,18.52
2023-05-01T17:22:31.001Z,18.39
2023-05-01T17:25:02.302Z,18.34
2023-05-01T17:27:30.978Z,18.15
2023-05-01T17:29:59.422Z,18.07
2023-05-01T17:32:36.389Z,18.06
2023-05-01T17:35:05.678Z,18.00
2023-05-01T17:37:33.732Z,17.86
2023-05-01T17:40:02.235Z,17.84
2023-05-01T17:42:30.488Z,17.69
2023-05-01T17:44:58.696Z,17.46
2023-05-01T17:47:28.339Z,17.38
2023-05-01T17:49:56.342Z,17.54
2023-05-01T17:52:24.332Z,17.43
2023-05-01T17:54:52.409Z,17.36
2023-05-01T17:57:20.826Z,17.17
2023-05-01T17:59:48.786Z,17.31
2023-05-01T18:02:16.813Z,17.30
2023-05-01T18:04:49.619Z,17.15
2023-05-01T18:07:17.747Z,17.05
2023-05-01T18:09:45.658Z,16.94
2023-05-01T18:12:13.554Z,16.77
2023-05-01T18:14:42.069Z,16.73
2023-05-01T18:17:10.148Z,16.74
2023-05-01T18:19:38.122Z,16.53
2023-05-01T18:22:07.408Z,16.55
2023-05-01T18:24:35.346Z,16.54
2023-05-01T18:27:03.320Z,16.49
2023-05-01T18:29:31.372Z,16.53
2023-05-01T18:31:59.579Z,16.45
2023-05-01T18:34:27.554Z,16.36
2023-05-01T18:36:55.464Z,16.17
2023-05-01T18:39:24.719Z,16.19
2023-05-01T18:41:52.964Z,16.05
2023-05-01T18:44:20.958Z,16.15
2023-05-01T18:46:49.165Z,16.07
2023-05-01T18:49:21.038Z,16.12
2023-05-01T18:51:48.970Z,16.03
2023-05-01T18:54:17.165Z,15.94
2023-05-01T18:56:46.801Z,16.04
2023-05-01T18:59:14.762Z,15.96
2023-05-01T19:01:42.699Z,15.92
2023-05-01T19:04:10.633Z,15.80
2023-05-01T19:06:40.770Z,15.85
2023-05-01T19:09:09.095Z,15.86
2023-05-01T19:11:37.113Z,15.76
2023-05-01T19:14:06.507Z,15.78
2023-05-01T19:16:34.537Z,15.58
2023-05-01T19:19:05.413Z,15.68
2023-05-01T19:21:33.586Z,15.68
2023-05-01T19:24:01.528Z,15.61
2023-05-01T19:26:30.153Z,15.56
2023-05-01T19:28:58.313Z,15.51
2023-05-01T19:31:28.928Z,15.36
2023-05-01T19:33:57.086Z,15.28
2023-05-01T19:36:25.067Z,15.32
2023-05-01T19:38:52.965Z,15.18
2023-05-01T19:41:20.926Z,15.18
2023-05-01T19:43:48.834Z,15.04
2023-05-01T19:46:16.742Z,14.97
2023-05-01T19:48:46.192Z,15.06
2023-05-01T19:51:14.146Z,14.87
2023-05-01T19:53:42.277Z,14.82
2023-05-01T19:56:10.407Z,14.84
2023-05-01T19:58:38.995Z,14.82
2023-05-01T20:01:09.289Z,14.81
2023-05-01T20:03:37.378Z,14.80
2023-05-01T20:06:07.495Z,14.87
2023-05-01T20:08:35.481Z,14.71
2023-05-01T20:11:03.392Z,14.74
2023-05-01T20:13:31.408Z,14.78
2023-05-01T20:15:59.324Z,14.63
2023-05-01T20:18:27.242Z,14.60
2023-05-01T20:20:55.103Z,14.55
2023-05-01T20:23:24.419Z,14.41
2023-05-01T20:25:53.520Z,14.45
2023-05-01T20:28:21.749Z,14.38
2023-05-01T20:30:50.199Z,14.43
2023-05-01T20:33:18.605Z,14.38
2023-05-01T20:35:46.618Z,14.36
2023-05-01T20:38:14.611Z,14.35
2023-05-01T20:40:43.885Z,14.37
2023-05-01T20:43:11.816Z,14.31
2023-05-01T20:45:39.879Z,14.25
2023-05-01T20:48:07.996Z,14.32
2023-05-01T20:50:36.043Z,14.32
2023-05-01T20:53:04.001Z,14.21
2023-05-01T20:55:31.880Z,14.02
2023-05-01T20:58:01.123Z,14.00
2023-05-01T21:00:29.134Z,14.03
2023-05-01T21:02:59.016Z,13.95
2023-05-01T21:05:26.950Z,13.92
2023-05-01T21:07:54.814Z,13.80
2023-05-01T21:10:22.701Z,13.80
2023-05-01T21:12:51.082Z,13.78
2023-05-01T21:15:20.711Z,13.64
2023-05-01T21:17:48.635Z,13.71
2023-05-01T21:20:18.233Z,13.60
2023-05-01T21:22:48.124Z,13.72
2023-05-01T21:25:17.293Z,13.61
2023-05-01T21:27:45.241Z,13.60
2023-05-01T21:30:17.143Z,13.37
2023-05-01T21:32:46.466Z,13.34
2023-05-01T21:35:16.830Z,13.39
2023-05-01T21:37:45.968Z,13.25
2023-05-01T21:40:15.294Z,13.19
2023-05-01T21:42:43.234Z,13.14
2023-05-01T21:45:13.686Z,13.05
2023-05-01T21:47:43.176Z,13.06
2023-05-01T21:50:15.465Z,12.96
2023-05-01T21:52:44.681Z,12.94
2023-05-01T21:55:19.368Z,12.75
2023-05-01T21:57:47.598Z,12.91
2023-05-01T22:00:16.283Z,12.85
2023-05-01T22:02:49.424Z,12.86
2023-05-01T22:05:22.080Z,12.72
2023-05-01T22:07:51.404Z,12.75
2023-05-01T22:10:20.379Z,12.88
2023-05-01T22:12:50.312Z,12.83
2023-05-01T22:15:18.419Z,12.86
2023-05-01T22:17:46.789Z,12.84
2023-05-01T22:20:16.288Z,12.81
2023-05-01T22:22:45.656Z,12.72
2023-05-01T22:25:13.537Z,12.79
2023-05-01T22:27:41.785Z,12.74
2023-05-01T22:30:10.490Z,12.69
2023-05-01T22:32:38.418Z,12.71
2023-05-01T22:35:08.425Z,12.65
2023-05-01T22:37:36.412Z,12.66
2023-05-01T22:40:06.905Z,12.66
2023-05-01T22:42:34.763Z,12.60
2023-05-01T22:45:02.606Z,12.46
2023-05-01T22:47:30.642Z,12.42
2023-05-01T22:49:58.808Z,12.47
2023-05-01T22:52:26.909Z,12.47
2023-05-01T22:54:56.036Z,12.51
2023-05-01T22:57:25.415Z,12.52
2023-05-01T22:59:53.337Z,12.63
2023-05-01T23:02:21.512Z,12.69
2023-05-01T23:04:49.553Z,12.51
2023-05-01T23:07:18.133Z,12.37
2023-05-01T23:09:46.713Z,12.41
2023-05-01T23:12:19.874Z,12.36
2023-05-01T23:14:49.226Z,12.42
2023-05-01T23:17:17.321Z,12.44
2023-05-01T23:19:47.308Z,12.46
2023-05-01T23:22:15.371Z,12.35
2023-05-01T23:24:47.636Z,12.30
2023-05-01T23:27:16.910Z,12.17
2023-05-01T23:29:53.971Z,12.24
2023-05-01T23:32:26.381Z,12.29
2023-05-01T23:34:54.967Z,12.26
2023-05-01T23:37:23.345Z,12.19
2023-05-01T23:39:53.582Z,12.17
2023-05-01T23:42:22.935Z,12.12
2023-05-01T23:44:52.303Z,12.04
2023-05-01T23:47:20.406Z,12.04
2023-05-01T23:49:48.694Z,11.97
2023-05-01T23:52:17.128Z,11.92
2023-05-01T23:54:44.953Z,11.97
2023-05-01T23:57:13.120Z,11.88
2023-05-01T23:59:40.965Z,11.64
